Time;durP1;ratioP1;P1;durP2;ratioP2;P2;SDS_P1;SDS_P2;PMS_P1;PMS_P2;Temp;Humidity;BMP_temperature;BMP_pressure;BME280_temperature;BME280_humidity;BME280_pressure;Samples;Min_cycle;Max_cycle;Signal;HPM_P1;HPM_P2
2023/06/20 00:02:05;;;;;;;16.10;13.77;;;;;;;;;;5070400;28;20662;-65
2023/06/20 00:04:33;;;;;;;37.03;14.70;;;;;;;;;;5069857;28;20717;-66
2023/06/20 00:07:01;;;;;;;19.50;14.57;;;;;;;;;;5071080;28;20690;-64
2023/06/20 00:09:32;;;;;;;17.17;13.80;;;;;;;;;;5070794;28;20632;-64
2023/06/20 00:12:00;;;;;;;14.00;12.47;;;;;;;;;;5053865;28;20677;-64
2023/06/20 00:14:30;;;;;;;14.57;13.07;;;;;;;;;;5068174;28;20634;-64
2023/06/20 00:16:59;;;;;;;12.60;11.40;;;;;;;;;;5067000;28;20595;-63
2023/06/20 00:19:27;;;;;;;15.90;12.60;;;;;;;;;;5063683;28;20664;-65
2023/06/20 00:21:55;;;;;;;13.10;11.67;;;;;;;;;;5063773;28;20643;-64
2023/06/20 00:24:25;;;;;;;13.67;12.17;;;;;;;;;;5062420;28;21348;-64
2023/06/20 00:26:56;;;;;;;11.80;10.70;;;;;;;;;;5065182;28;20738;-65
2023/06/20 00:29:25;;;;;;;10.27;9.43;;;;;;;;;;5048432;28;20662;-66
2023/06/20 00:31:54;;;;;;;10.40;9.43;;;;;;;;;;5048563;28;20689;-64
2023/06/20 00:34:25;;;;;;;12.80;10.40;;;;;;;;;;5066867;28;20606;-66
2023/06/20 00:36:56;;;;;;;10.87;9.97;;;;;;;;;;5049510;28;20696;-63
2023/06/20 00:39:25;;;;;;;10.17;9.27;;;;;;;;;;5066785;28;20621;-67
2023/06/20 00:41:53;;;;;;;10.23;9.33;;;;;;;;;;5066058;28;20654;-66
2023/06/20 00:44:21;;;;;;;12.53;11.43;;;;;;;;;;5067566;28;20635;-66
2023/06/20 00:46:49;;;;;;;11.37;10.43;;;;;;;;;;5049098;28;20711;-65
2023/06/20 00:49:19;;;;;;;14.00;12.90;;;;;;;;;;5067135;28;20643;-66
2023/06/20 00:51:48;;;;;;;13.10;11.90;;;;;;;;;;5048881;28;20635;-66
2023/06/20 00:54:16;;;;;;;12.80;11.53;;;;;;;;;;5061540;28;20711;-64
2023/06/20 00:56:46;;;;;;;13.03;11.77;;;;;;;;;;5065286;28;20677;-68
2023/06/20 00:59:14;;;;;;;13.20;12.10;;;;;;;;;;5047117;28;20646;-67
2023/06/20 01:01:42;;;;;;;13.90;12.33;;;;;;;;;;5057610;28;20714;-66
2023/06/20 01:04:12;;;;;;;13.60;12.30;;;;;;;;;;5033385;28;20623;-65
2023/06/20 01:06:46;;;;;;;13.77;12.47;;;;;;;;;;5053357;28;20698;-66
2023/06/20 01:09:19;;;;;;;13.90;12.60;;;;;;;;;;5052096;28;20607;-65
2023/06/20 01:11:50;;;;;;;13.30;12.30;;;;;;;;;;5024200;28;20611;-66
2023/06/20 01:14:23;;;;;;;14.17;12.80;;;;;;;;;;5052617;28;20618;-67
2023/06/20 01:16:57;;;;;;;13.13;12.00;;;;;;;;;;5053373;28;20615;-66
2023/06/20 01:19:34;;;;;;;13.90;12.50;;;;;;;;;;5052329;28;20609;-66
2023/06/20 01:22:07;;;;;;;13.73;12.60;;;;;;;;;;5053125;28;20615;-67
2023/06/20 01:24:39;;;;;;;14.53;12.37;;;;;;;;;;5051572;28;20625;-65
2023/06/20 01:27:10;;;;;;;14.23;12.90;;;;;;;;;;5052863;28;20988;-66
2023/06/20 01:29:41;;;;;;;14.63;13.10;;;;;;;;;;5033214;28;20621;-67
2023/06/20 01:32:12;;;;;;;15.73;14.23;;;;;;;;;;5053323;28;20607;-67
2023/06/20 01:34:44;;;;;;;16.50;15.00;;;;;;;;;;5052829;28;20599;-68
2023/06/20 01:37:15;;;;;;;17.77;16.07;;;;;;;;;;5053003;28;20690;-66
2023/06/20 01:39:47;;;;;;;18.13;16.43;;;;;;;;;;5055093;28;20564;-67
2023/06/20 01:42:19;;;;;;;18.03;16.20;;;;;;;;;;5056522;28;21012;-65
2023/06/20 01:44:48;;;;;;;18.77;17.10;;;;;;;;;;5056693;28;20607;-66
2023/06/20 01:47:17;;;;;;;16.57;15.07;;;;;;;;;;5056049;28;20664;-66
2023/06/20 01:49:46;;;;;;;18.50;16.60;;;;;;;;;;5055558;28;20627;-65
2023/06/20 01:52:14;;;;;;;17.93;16.33;;;;;;;;;;5038941;28;20625;-66
2023/06/20 01:54:46;;;;;;;15.87;14.47;;;;;;;;;;5055741;28;20982;-67
2023/06/20 01:57:17;;;;;;;17.93;16.23;;;;;;;;;;5056111;28;20686;-66
2023/06/20 01:59:46;;;;;;;15.73;14.23;;;;;;;;;;5055515;28;20611;-66
2023/06/20 02:02:15;;;;;;;15.73;14.10;;;;;;;;;;5037572;28;20982;-66
2023/06/20 02:04:45;;;;;;;17.20;15.40;;;;;;;;;;5036698;28;20633;-67
2023/06/20 02:07:14;;;;;;;16.80;15.13;;;;;;;;;;5021545;28;20649;-67
2023/06/20 02:09:44;;;;;;;17.80;16.20;;;;;;;;;;5056384;28;20646;-66
2023/06/20 02:12:14;;;;;;;16.17;14.57;;;;;;;;;;5056471;28;20610;-66
2023/06/20 02:14:44;;;;;;;17.30;15.80;;;;;;;;;;5056451;28;20581;-67
2023/06/20 02:17:14;;;;;;;17.00;15.47;;;;;;;;;;5054979;28;20582;-66
2023/06/20 02:19:42;;;;;;;17.93;16.33;;;;;;;;;;5041690;28;20629;-67
2023/06/20 02:22:13;;;;;;;16.47;15.13;;;;;;;;;;5055101;28;21051;-66
2023/06/20 02:24:43;;;;;;;17.77;15.90;;;;;;;;;;5055023;28;20977;-67
2023/06/20 02:27:14;;;;;;;17.47;16.00;;;;;;;;;;5055400;28;21020;-67
2023/06/20 02:29:44;;;;;;;20.43;17.33;;;;;;;;;;5055821;28;20583;-67
2023/06/20 02:32:13;;;;;;;16.47;14.97;;;;;;;;;;5055763;28;20619;-66
2023/06/20 02:34:44;;;;;;;17.73;16.20;;;;;;;;;;5056307;28;20598;-67
2023/06/20 02:37:13;;;;;;;20.03;18.07;;;;;;;;;;5054942;28;20637;-67
2023/06/20 02:39:42;;;;;;;19.17;15.80;;;;;;;;;;5056653;28;20679;-66
2023/06/20 02:42:11;;;;;;;18.80;17.17;;;;;;;;;;5037730;28;20668;-67
2023/06/20 02:44:39;;;;;;;19.43;17.43;;;;;;;;;;5056343;28;20606;-67
2023/06/20 02:47:15;;;;;;;19.13;17.30;;;;;;;;;;5054275;28;20590;-67
2023/06/20 02:49:47;;;;;;;20.80;18.60;;;;;;;;;;5055678;28;20560;-67
2023/06/20 02:52:20;;;;;;;19.10;17.40;;;;;;;;;;5055012;28;20580;-66
2023/06/20 02:54:50;;;;;;;18.47;16.80;;;;;;;;;;5050325;28;20607;-66
2023/06/20 02:57:22;;;;;;;18.63;16.93;;;;;;;;;;5054451;28;20719;-66
2023/06/20 02:59:52;;;;;;;19.67;17.77;;;;;;;;;;5018519;28;20583;-66
2023/06/20 03:02:23;;;;;;;20.20;18.20;;;;;;;;;;5031802;28;20620;-67
2023/06/20 03:04:56;;;;;;;19.17;17.27;;;;;;;;;;5036128;28;20595;-67
2023/06/20 03:07:26;;;;;;;20.33;18.03;;;;;;;;;;5053961;28;20650;-67
2023/06/20 03:09:55;;;;;;;23.77;18.03;;;;;;;;;;5037075;28;20659;-67
2023/06/20 03:12:24;;;;;;;20.40;18.63;;;;;;;;;;5054437;28;20662;-67
2023/06/20 03:14:52;;;;;;;20.67;18.77;;;;;;;;;;5036876;28;20623;-67
2023/06/20 03:17:20;;;;;;;20.80;18.70;;;;;;;;;;5053759;28;20631;-66
2023/06/20 03:19:50;;;;;;;20.37;18.37;;;;;;;;;;5033603;28;20629;-67
2023/06/20 03:22:21;;;;;;;21.30;19.10;;;;;;;;;;5010191;28;20623;-67
2023/06/20 03:24:49;;;;;;;18.43;16.83;;;;;;;;;;5049060;28;20623;-67
2023/06/20 03:27:17;;;;;;;19.97;18.13;;;;;;;;;;5053500;28;20628;-67
2023/06/20 03:29:46;;;;;;;20.23;18.37;;;;;;;;;;5053977;28;20966;-67
2023/06/20 03:32:14;;;;;;;20.87;18.73;;;;;;;;;;5036469;28;20619;-66
2023/06/20 03:34:42;;;;;;;20.10;18.37;;;;;;;;;;5036470;28;20702;-67
2023/06/20 03:37:12;;;;;;;21.00;19.00;;;;;;;;;;5053926;28;20615;-66
2023/06/20 03:39:40;;;;;;;21.60;19.77;;;;;;;;;;5053683;28;20631;-66
2023/06/20 03:42:09;;;;;;;20.30;18.40;;;;;;;;;;5035807;28;20615;-67
2023/06/20 03:44:38;;;;;;;20.33;18.53;;;;;;;;;;5036022;28;20628;-66
2023/06/20 03:47:06;;;;;;;21.17;19.27;;;;;;;;;;5020366;28;20965;-67
2023/06/20 03:49:34;;;;;;;21.70;19.80;;;;;;;;;;5036338;28;20665;-67
2023/06/20 03:52:02;;;;;;;20.80;18.60;;;;;;;;;;5033829;28;20629;-67
2023/06/20 03:54:34;;;;;;;22.87;20.63;;;;;;;;;;5054000;28;20623;-67
2023/06/20 03:57:02;;;;;;;22.13;20.00;;;;;;;;;;5035060;28;20655;-65
2023/06/20 03:59:32;;;;;;;21.53;19.30;;;;;;;;;;5036078;28;20619;-67
2023/06/20 04:02:00;;;;;;;25.87;20.50;;;;;;;;;;5033637;28;20631;-67
2023/06/20 04:04:29;;;;;;;21.73;19.73;;;;;;;;;;5034946;28;20983;-67
2023/06/20 04:06:57;;;;;;;22.90;20.60;;;;;;;;;;5052575;28;20631;-64
2023/06/20 04:09:26;;;;;;;23.50;21.13;;;;;;;;;;5044730;28;20655;-67
2023/06/20 04:11:56;;;;;;;20.83;18.73;;;;;;;;;;5044735;28;20643;-65
2023/06/20 04:14:24;;;;;;;22.10;20.10;;;;;;;;;;5053124;28;20649;-65
2023/06/20 04:16:52;;;;;;;20.80;18.93;;;;;;;;;;5052595;28;20622;-67
2023/06/20 04:19:21;;;;;;;22.20;19.00;;;;;;;;;;5053066;28;20980;-66
2023/06/20 04:21:49;;;;;;;21.83;19.87;;;;;;;;;;5052897;28;21176;-66
2023/06/20 04:24:17;;;;;;;20.27;18.57;;;;;;;;;;5026657;28;21269;-66
2023/06/20 04:26:46;;;;;;;21.87;19.90;;;;;;;;;;5015115;28;20634;-66
2023/06/20 04:29:16;;;;;;;21.87;19.87;;;;;;;;;;5014955;28;20667;-65
2023/06/20 04:31:44;;;;;;;20.80;18.60;;;;;;;;;;5032465;28;20620;-66
2023/06/20 04:34:12;;;;;;;20.73;18.70;;;;;;;;;;5015755;28;20974;-67
2023/06/20 04:36:41;;;;;;;20.13;18.13;;;;;;;;;;5025933;28;21176;-66
2023/06/20 04:39:11;;;;;;;19.40;17.70;;;;;;;;;;5034886;28;20988;-66
2023/06/20 04:41:39;;;;;;;20.67;18.93;;;;;;;;;;5035405;28;20629;-67
2023/06/20 04:44:08;;;;;;;21.13;19.27;;;;;;;;;;5052192;28;20621;-67
2023/06/20 04:46:37;;;;;;;21.87;19.87;;;;;;;;;;5052434;28;20611;-66
2023/06/20 04:49:06;;;;;;;22.23;20.27;;;;;;;;;;5033368;28;20667;-67
2023/06/20 04:51:35;;;;;;;22.70;20.37;;;;;;;;;;5033778;28;20649;-67
2023/06/20 04:54:04;;;;;;;20.20;18.33;;;;;;;;;;5033505;28;20626;-66
2023/06/20 04:56:32;;;;;;;19.57;17.97;;;;;;;;;;5045649;28;20657;-67
2023/06/20 04:59:00;;;;;;;21.00;19.20;;;;;;;;;;5051888;28;20623;-66
2023/06/20 05:01:28;;;;;;;18.47;16.87;;;;;;;;;;5032341;28;21203;-67
2023/06/20 05:03:58;;;;;;;19.20;17.37;;;;;;;;;;5032991;28;20615;-67
2023/06/20 05:06:26;;;;;;;19.97;18.20;;;;;;;;;;5049967;28;20757;-67
2023/06/20 05:08:54;;;;;;;20.07;18.23;;;;;;;;;;5017750;28;20661;-67
2023/06/20 05:11:23;;;;;;;19.70;17.47;;;;;;;;;;5031094;28;21244;-67
2023/06/20 05:13:51;;;;;;;19.97;17.90;;;;;;;;;;5054700;28;21181;-68
2023/06/20 05:16:19;;;;;;;19.83;18.13;;;;;;;;;;5054745;28;20618;-66
2023/06/20 05:18:47;;;;;;;20.27;18.27;;;;;;;;;;5037571;28;20617;-66
2023/06/20 05:21:17;;;;;;;20.50;18.70;;;;;;;;;;5054580;28;21161;-66
2023/06/20 05:23:45;;;;;;;20.43;18.63;;;;;;;;;;5054885;28;20623;-66
2023/06/20 05:26:13;;;;;;;19.43;17.73;;;;;;;;;;5055063;28;20614;-66
2023/06/20 05:28:41;;;;;;;21.50;19.57;;;;;;;;;;5054849;28;20665;-67
2023/06/20 05:31:11;;;;;;;20.47;18.43;;;;;;;;;;5054246;28;20635;-67
2023/06/20 05:33:39;;;;;;;20.80;18.80;;;;;;;;;;5037228;28;20623;-68
2023/06/20 05:36:07;;;;;;;21.37;19.23;;;;;;;;;;5055561;28;20715;-68
2023/06/20 05:38:37;;;;;;;23.83;19.17;;;;;;;;;;5042603;28;20637;-68
2023/06/20 05:41:05;;;;;;;22.77;20.77;;;;;;;;;;5055196;28;21191;-68
2023/06/20 05:43:33;;;;;;;22.00;20.17;;;;;;;;;;5050849;28;20631;-68
2023/06/20 05:46:02;;;;;;;22.67;20.67;;;;;;;;;;5055810;28;20629;-66
2023/06/20 05:48:32;;;;;;;21.07;19.27;;;;;;;;;;5054311;28;20626;-65
2023/06/20 05:51:00;;;;;;;19.87;18.10;;;;;;;;;;5052475;28;20930;-66
2023/06/20 05:53:28;;;;;;;20.43;18.43;;;;;;;;;;5054451;28;20625;-66
2023/06/20 05:55:58;;;;;;;20.77;18.80;;;;;;;;;;5037272;28;20657;-67
2023/06/20 05:58:26;;;;;;;20.50;18.50;;;;;;;;;;5052753;28;20626;-66
2023/06/20 06:00:54;;;;;;;19.73;18.03;;;;;;;;;;5055494;28;20615;-65
2023/06/20 06:03:23;;;;;;;21.23;19.27;;;;;;;;;;5061693;28;20669;-66
2023/06/20 06:05:51;;;;;;;20.20;18.23;;;;;;;;;;5061437;28;20710;-66
2023/06/20 06:08:19;;;;;;;20.23;18.43;;;;;;;;;;5060040;28;20682;-66
2023/06/20 06:10:47;;;;;;;19.73;17.90;;;;;;;;;;5052168;28;20752;-66
2023/06/20 06:13:17;;;;;;;21.57;19.37;;;;;;;;;;5057958;28;20664;-68
2023/06/20 06:15:45;;;;;;;19.13;17.30;;;;;;;;;;5066068;28;20706;-66
2023/06/20 06:18:13;;;;;;;20.83;18.93;;;;;;;;;;5065555;28;20682;-66
2023/06/20 06:20:44;;;;;;;19.67;18.07;;;;;;;;;;5060775;28;21026;-66
2023/06/20 06:23:12;;;;;;;24.10;21.60;;;;;;;;;;5060358;28;21021;-66
2023/06/20 06:25:40;;;;;;;20.40;18.60;;;;;;;;;;5052593;28;20695;-67
2023/06/20 06:28:09;;;;;;;20.60;18.90;;;;;;;;;;5019695;28;20622;-66
2023/06/20 06:30:38;;;;;;;19.23;17.63;;;;;;;;;;5039818;28;20758;-65
2023/06/20 06:33:07;;;;;;;19.53;17.93;;;;;;;;;;5040117;28;20761;-67
2023/06/20 06:35:35;;;;;;;19.60;17.87;;;;;;;;;;5024879;28;20684;-67
2023/06/20 06:38:04;;;;;;;18.10;16.20;;;;;;;;;;5043566;28;20703;-66
2023/06/20 06:40:33;;;;;;;19.03;17.40;;;;;;;;;;5045424;28;20679;-66
2023/06/20 06:43:01;;;;;;;18.63;17.13;;;;;;;;;;5038866;28;20698;-66
2023/06/20 06:45:33;;;;;;;21.00;19.10;;;;;;;;;;5043095;28;20690;-66
2023/06/20 06:48:03;;;;;;;18.80;17.00;;;;;;;;;;5057790;28;20770;-65
2023/06/20 06:50:31;;;;;;;17.33;15.77;;;;;;;;;;5065536;28;20810;-65
2023/06/20 06:53:01;;;;;;;19.60;17.93;;;;;;;;;;5058437;28;21289;-66
2023/06/20 06:55:29;;;;;;;19.80;18.00;;;;;;;;;;5068721;28;20643;-65
2023/06/20 06:57:57;;;;;;;16.40;15.00;;;;;;;;;;5049859;28;20686;-65
2023/06/20 07:00:26;;;;;;;17.30;15.80;;;;;;;;;;5069006;28;20635;-66
2023/06/20 07:02:54;;;;;;;20.03;18.13;;;;;;;;;;5073659;28;20630;-66
2023/06/20 07:05:23;;;;;;;17.23;15.83;;;;;;;;;;5059946;28;20683;-66
2023/06/20 07:07:52;;;;;;;18.03;16.53;;;;;;;;;;5043854;28;20630;-68
2023/06/20 07:10:20;;;;;;;16.23;14.53;;;;;;;;;;5054533;28;20921;-68
2023/06/20 07:12:48;;;;;;;16.13;14.27;;;;;;;;;;5038523;28;20706;-69
2023/06/20 07:15:16;;;;;;;15.97;14.57;;;;;;;;;;5041167;28;20702;-70
2023/06/20 07:17:44;;;;;;;15.03;13.70;;;;;;;;;;5042117;28;20710;-68
2023/06/20 07:20:13;;;;;;;14.83;13.33;;;;;;;;;;5059724;28;20702;-68
2023/06/20 07:22:44;;;;;;;15.90;14.37;;;;;;;;;;5058049;28;20698;-68
2023/06/20 07:25:13;;;;;;;15.40;14.10;;;;;;;;;;5055124;28;20588;-68
2023/06/20 07:27:41;;;;;;;14.40;13.00;;;;;;;;;;5053285;28;20619;-67
2023/06/20 07:30:09;;;;;;;15.43;14.13;;;;;;;;;;5054350;28;20651;-68
2023/06/20 07:32:38;;;;;;;14.37;13.10;;;;;;;;;;5055975;28;20710;-68
2023/06/20 07:35:06;;;;;;;15.53;12.33;;;;;;;;;;5057009;28;20707;-69
2023/06/20 07:37:35;;;;;;;13.80;12.67;;;;;;;;;;5054800;28;20705;-69
2023/06/20 07:40:06;;;;;;;12.03;10.93;;;;;;;;;;5055671;28;21033;-68
2023/06/20 07:42:35;;;;;;;12.73;11.67;;;;;;;;;;5040775;28;20679;-67
2023/06/20 07:45:03;;;;;;;13.17;12.00;;;;;;;;;;5064792;28;20703;-67
2023/06/20 07:47:32;;;;;;;13.50;12.30;;;;;;;;;;5068364;28;20611;-66
2023/06/20 07:50:00;;;;;;;14.23;11.67;;;;;;;;;;5058594;28;20710;-67
2023/06/20 07:52:30;;;;;;;13.10;11.87;;;;;;;;;;5030318;28;20738;-68
2023/06/20 07:54:58;;;;;;;13.37;12.17;;;;;;;;;;5059270;28;20721;-67
2023/06/20 07:57:28;;;;;;;13.03;11.97;;;;;;;;;;5055143;28;20734;-65
2023/06/20 07:59:56;;;;;;;16.17;12.43;;;;;;;;;;5058408;28;20698;-65
2023/06/20 08:02:24;;;;;;;15.97;12.10;;;;;;;;;;5052117;28;20633;-67
2023/06/20 08:04:52;;;;;;;12.07;10.87;;;;;;;;;;5053113;28;20969;-66
2023/06/20 08:07:20;;;;;;;16.57;11.63;;;;;;;;;;5055310;28;20690;-67
2023/06/20 08:09:49;;;;;;;16.17;12.07;;;;;;;;;;5035157;28;21205;-65
2023/06/20 08:12:17;;;;;;;12.03;11.03;;;;;;;;;;5042033;28;20653;-68
2023/06/20 08:14:46;;;;;;;12.93;11.83;;;;;;;;;;5051758;28;21214;-67
2023/06/20 08:17:15;;;;;;;12.83;11.57;;;;;;;;;;5052113;28;20936;-67
2023/06/20 08:19:43;;;;;;;12.10;10.93;;;;;;;;;;5053179;28;20934;-66
2023/06/20 08:22:11;;;;;;;13.80;11.60;;;;;;;;;;5052824;28;21183;-68
2023/06/20 08:24:39;;;;;;;12.57;11.47;;;;;;;;;;5051976;28;20979;-68
2023/06/20 08:27:08;;;;;;;14.30;11.70;;;;;;;;;;5052074;28;20618;-68
2023/06/20 08:29:36;;;;;;;13.57;11.10;;;;;;;;;;5052542;28;21031;-68
2023/06/20 08:32:06;;;;;;;11.57;10.57;;;;;;;;;;5053032;28;20615;-68
2023/06/20 08:34:34;;;;;;;12.37;11.23;;;;;;;;;;5037784;28;20647;-67
2023/06/20 08:37:03;;;;;;;11.70;10.57;;;;;;;;;;5032215;28;20614;-68
2023/06/20 08:39:31;;;;;;;13.90;11.33;;;;;;;;;;5031392;28;21184;-70
2023/06/20 08:41:59;;;;;;;11.00;10.00;;;;;;;;;;5031088;28;21015;-68
2023/06/20 08:44:28;;;;;;;11.40;10.30;;;;;;;;;;5031186;28;20619;-69
2023/06/20 08:46:57;;;;;;;11.80;10.67;;;;;;;;;;5013632;28;20750;-67
2023/06/20 08:49:27;;;;;;;11.77;10.77;;;;;;;;;;5031939;28;20626;-68
2023/06/20 08:51:58;;;;;;;12.10;10.80;;;;;;;;;;5013931;28;20658;-67
2023/06/20 08:54:27;;;;;;;11.10;10.10;;;;;;;;;;5032467;28;20584;-68
2023/06/20 08:56:55;;;;;;;12.50;11.37;;;;;;;;;;5031170;28;20757;-67
2023/06/20 08:59:24;;;;;;;11.63;10.63;;;;;;;;;;5034456;28;20620;-68
2023/06/20 09:01:52;;;;;;;11.63;10.50;;;;;;;;;;5036410;28;20631;-69
2023/06/20 09:04:20;;;;;;;11.57;10.77;;;;;;;;;;5023926;28;20718;-68
2023/06/20 09:06:50;;;;;;;11.90;10.90;;;;;;;;;;5040214;28;20696;-69
2023/06/20 09:09:18;;;;;;;18.27;11.60;;;;;;;;;;5019422;28;21034;-65
2023/06/20 09:11:52;;;;;;;14.00;12.80;;;;;;;;;;5031956;28;21095;-67
2023/06/20 09:14:20;;;;;;;12.60;11.60;;;;;;;;;;5054473;28;20610;-70
2023/06/20 09:16:49;;;;;;;11.93;10.90;;;;;;;;;;5053248;28;20992;-69
2023/06/20 09:19:17;;;;;;;12.23;11.23;;;;;;;;;;5039561;28;20679;-67
2023/06/20 09:21:45;;;;;;;12.63;11.47;;;;;;;;;;5058992;28;20686;-66
2023/06/20 09:24:17;;;;;;;13.07;11.80;;;;;;;;;;5037871;28;20611;-67
2023/06/20 09:26:47;;;;;;;12.00;10.90;;;;;;;;;;5054116;28;20592;-67
2023/06/20 09:29:16;;;;;;;13.67;12.60;;;;;;;;;;5053375;28;20715;-67
2023/06/20 09:31:45;;;;;;;13.87;12.80;;;;;;;;;;5053391;28;20650;-66
2023/06/20 09:34:14;;;;;;;13.13;12.00;;;;;;;;;;5051732;28;20641;-65
2023/06/20 09:36:42;;;;;;;12.83;11.63;;;;;;;;;;5052203;28;20607;-66
2023/06/20 09:39:12;;;;;;;12.87;11.67;;;;;;;;;;5052522;28;20634;-66
2023/06/20 09:41:49;;;;;;;11.30;10.40;;;;;;;;;;5057259;28;21179;-68
2023/06/20 09:44:18;;;;;;;14.00;12.70;;;;;;;;;;5068756;28;20213;-67
2023/06/20 09:46:46;;;;;;;12.93;11.70;;;;;;;;;;5064253;28;20695;-68
2023/06/20 09:49:15;;;;;;;12.77;11.97;;;;;;;;;;5061955;28;21447;-67
2023/06/20 09:51:46;;;;;;;13.60;12.67;;;;;;;;;;5062452;28;20710;-65
2023/06/20 09:54:15;;;;;;;13.47;12.20;;;;;;;;;;5060687;28;20650;-65
2023/06/20 09:56:47;;;;;;;13.57;12.67;;;;;;;;;;5054840;28;21279;-65
2023/06/20 09:59:17;;;;;;;14.07;13.07;;;;;;;;;;5054329;28;20659;-65
2023/06/20 10:01:46;;;;;;;14.67;13.57;;;;;;;;;;5057477;28;21104;-65
2023/06/20 10:04:16;;;;;;;15.50;14.13;;;;;;;;;;5060038;28;20722;-67
2023/06/20 10:06:44;;;;;;;15.93;13.17;;;;;;;;;;5061451;28;20714;-67
2023/06/20 10:09:13;;;;;;;15.03;14.00;;;;;;;;;;5061206;28;20709;-67
2023/06/20 10:11:42;;;;;;;14.90;13.90;;;;;;;;;;5057748;28;20658;-64
2023/06/20 10:14:11;;;;;;;14.80;13.80;;;;;;;;;;5045880;28;20670;-67
2023/06/20 10:16:40;;;;;;;15.60;14.13;;;;;;;;;;5044597;28;20697;-67
2023/06/20 10:19:18;;;;;;;15.63;14.47;;;;;;;;;;5055539;28;20698;-68
2023/06/20 10:21:58;;;;;;;14.93;13.93;;;;;;;;;;5057863;28;20582;-67
2023/06/20 10:24:27;;;;;;;15.00;14.10;;;;;;;;;;5041307;28;20673;-68
2023/06/20 10:26:56;;;;;;;14.70;13.60;;;;;;;;;;5055025;28;20621;-68
2023/06/20 10:29:25;;;;;;;15.03;13.70;;;;;;;;;;5053217;28;20607;-66
2023/06/20 10:31:58;;;;;;;17.17;15.70;;;;;;;;;;5056113;28;20651;-65
2023/06/20 10:34:30;;;;;;;16.13;14.80;;;;;;;;;;5057142;28;21200;-64
2023/06/20 10:37:10;;;;;;;16.70;15.20;;;;;;;;;;5059763;28;21026;-63
2023/06/20 10:39:38;;;;;;;16.60;15.30;;;;;;;;;;5059115;28;20646;-63
2023/06/20 10:42:07;;;;;;;16.33;14.80;;;;;;;;;;5058728;28;20721;-63
2023/06/20 10:44:35;;;;;;;16.47;15.23;;;;;;;;;;5058465;28;20698;-63
2023/06/20 10:47:05;;;;;;;16.77;15.40;;;;;;;;;;5059468;28;20705;-63
2023/06/20 10:49:33;;;;;;;15.73;14.73;;;;;;;;;;5058038;28;20683;-63
2023/06/20 10:52:02;;;;;;;16.07;15.07;;;;;;;;;;5042570;28;20858;-63
2023/06/20 10:54:34;;;;;;;16.83;15.63;;;;;;;;;;5057345;28;21228;-64
2023/06/20 10:57:04;;;;;;;16.17;14.93;;;;;;;;;;5040249;28;21267;-63
2023/06/20 10:59:32;;;;;;;17.00;15.90;;;;;;;;;;5040160;28;21209;-63
2023/06/20 11:02:00;;;;;;;16.63;15.63;;;;;;;;;;5040561;28;21221;-64
2023/06/20 11:04:30;;;;;;;17.93;16.73;;;;;;;;;;5059117;28;20690;-63
2023/06/20 11:06:58;;;;;;;16.50;15.40;;;;;;;;;;5057419;28;20722;-63
2023/06/20 11:09:26;;;;;;;17.67;16.03;;;;;;;;;;5058027;28;21111;-63
2023/06/20 11:11:55;;;;;;;16.90;15.93;;;;;;;;;;5054283;28;20730;-63
2023/06/20 11:14:24;;;;;;;17.20;15.97;;;;;;;;;;5059659;28;20754;-63
2023/06/20 11:16:53;;;;;;;17.80;16.70;;;;;;;;;;5058834;28;20672;-63
2023/06/20 11:19:22;;;;;;;17.10;15.83;;;;;;;;;;5056413;28;20691;-64
2023/06/20 11:21:52;;;;;;;17.90;16.70;;;;;;;;;;5058934;28;20747;-63
2023/06/20 11:24:21;;;;;;;16.93;15.70;;;;;;;;;;5059255;28;20690;-63
2023/06/20 11:26:49;;;;;;;18.83;17.37;;;;;;;;;;5055858;28;20699;-64
2023/06/20 11:29:17;;;;;;;18.20;17.20;;;;;;;;;;5057347;28;21244;-64
2023/06/20 11:31:45;;;;;;;18.57;17.33;;;;;;;;;;5054454;28;20721;-64
2023/06/20 11:34:14;;;;;;;18.93;17.77;;;;;;;;;;5056210;28;20780;-64
2023/06/20 11:36:43;;;;;;;18.40;17.30;;;;;;;;;;5045680;28;20736;-64
2023/06/20 11:39:14;;;;;;;18.57;17.57;;;;;;;;;;5058104;28;21054;-64
2023/06/20 11:41:42;;;;;;;18.10;17.10;;;;;;;;;;5058332;28;20662;-64
2023/06/20 11:44:22;;;;;;;19.80;18.40;;;;;;;;;;5056960;28;20619;-64
2023/06/20 11:46:51;;;;;;;20.07;18.77;;;;;;;;;;5057397;28;20698;-64
2023/06/20 11:49:30;;;;;;;18.67;17.67;;;;;;;;;;5057243;28;20702;-64
2023/06/20 11:51:58;;;;;;;20.63;19.17;;;;;;;;;;5057688;28;20647;-64
2023/06/20 11:54:28;;;;;;;18.93;17.93;;;;;;;;;;5056466;28;20619;-64
2023/06/20 11:56:56;;;;;;;19.57;18.50;;;;;;;;;;5057211;28;21125;-65
2023/06/20 11:59:24;;;;;;;19.27;18.17;;;;;;;;;;5045190;28;20695;-64
2023/06/20 12:01:53;;;;;;;18.63;17.73;;;;;;;;;;5050854;28;20703;-64
2023/06/20 12:04:22;;;;;;;19.27;18.10;;;;;;;;;;5047789;28;20743;-65
2023/06/20 12:06:53;;;;;;;18.60;17.53;;;;;;;;;;5059326;28;20691;-64
2023/06/20 12:09:26;;;;;;;20.33;18.20;;;;;;;;;;5057934;28;21079;-64
2023/06/20 12:11:57;;;;;;;18.90;17.70;;;;;;;;;;5057866;28;20632;-65
2023/06/20 12:14:26;;;;;;;20.10;18.23;;;;;;;;;;5058143;28;20682;-66
2023/06/20 12:16:54;;;;;;;19.13;18.13;;;;;;;;;;5060219;28;20726;-65
2023/06/20 12:19:24;;;;;;;19.50;18.07;;;;;;;;;;5057872;28;20777;-65
2023/06/20 12:21:53;;;;;;;18.60;17.70;;;;;;;;;;5051964;28;20688;-65
2023/06/20 12:24:24;;;;;;;19.13;17.90;;;;;;;;;;5059100;28;20603;-65
2023/06/20 12:26:52;;;;;;;19.20;18.10;;;;;;;;;;5056287;28;20680;-65
2023/06/20 12:29:21;;;;;;;18.30;17.20;;;;;;;;;;5056768;28;20738;-64
2023/06/20 12:31:50;;;;;;;18.90;17.80;;;;;;;;;;5056901;28;20799;-65
2023/06/20 12:34:18;;;;;;;19.70;18.40;;;;;;;;;;5057233;28;20700;-65
2023/06/20 12:36:46;;;;;;;18.90;17.77;;;;;;;;;;5056385;28;20716;-64
2023/06/20 12:39:14;;;;;;;19.30;18.20;;;;;;;;;;5058274;28;20711;-65
2023/06/20 12:41:43;;;;;;;20.00;18.60;;;;;;;;;;5055656;28;20702;-65
2023/06/20 12:44:11;;;;;;;19.53;18.43;;;;;;;;;;5057085;28;20757;-64
2023/06/20 12:46:41;;;;;;;18.33;17.10;;;;;;;;;;5056973;28;20706;-65
2023/06/20 12:49:09;;;;;;;19.83;18.70;;;;;;;;;;5054358;28;20782;-65
2023/06/20 12:51:38;;;;;;;19.60;18.40;;;;;;;;;;5038361;28;20706;-65
2023/06/20 12:54:06;;;;;;;19.00;18.00;;;;;;;;;;5057356;28;20707;-65
2023/06/20 12:56:35;;;;;;;19.30;18.20;;;;;;;;;;5056790;28;20742;-66
2023/06/20 12:59:04;;;;;;;19.87;18.70;;;;;;;;;;5057721;28;20705;-65
2023/06/20 13:01:32;;;;;;;18.80;17.60;;;;;;;;;;5054572;28;20817;-65
2023/06/20 13:04:03;;;;;;;19.57;18.40;;;;;;;;;;5053715;28;21255;-65
2023/06/20 13:06:31;;;;;;;18.70;17.60;;;;;;;;;;5039747;28;20698;-64
2023/06/20 13:09:00;;;;;;;18.90;17.90;;;;;;;;;;5058763;28;20722;-65
2023/06/20 13:11:28;;;;;;;19.53;18.17;;;;;;;;;;5051059;28;20678;-66
2023/06/20 13:13:56;;;;;;;20.30;18.90;;;;;;;;;;5056562;28;20714;-66
2023/06/20 13:16:24;;;;;;;19.57;18.57;;;;;;;;;;5057126;28;20859;-65
2023/06/20 13:18:58;;;;;;;19.40;18.30;;;;;;;;;;5057357;28;21268;-65
2023/06/20 13:21:29;;;;;;;19.93;18.30;;;;;;;;;;5049373;28;20683;-65
2023/06/20 13:23:57;;;;;;;19.83;18.53;;;;;;;;;;5058840;28;20687;-66
2023/06/20 13:26:25;;;;;;;20.40;19.10;;;;;;;;;;5058320;28;20693;-65
2023/06/20 13:28:53;;;;;;;20.13;18.57;;;;;;;;;;5058496;28;20679;-65
2023/06/20 13:31:21;;;;;;;19.73;18.63;;;;;;;;;;5058376;28;21121;-65
2023/06/20 13:33:50;;;;;;;19.43;18.43;;;;;;;;;;5040767;28;20737;-65
2023/06/20 13:36:18;;;;;;;19.33;18.03;;;;;;;;;;5061525;28;21082;-65
2023/06/20 13:38:47;;;;;;;19.43;18.23;;;;;;;;;;5062795;28;21064;-65
2023/06/20 13:41:16;;;;;;;19.13;17.77;;;;;;;;;;5059697;28;20701;-66
2023/06/20 13:43:45;;;;;;;18.53;17.57;;;;;;;;;;5059183;28;20700;-66
2023/06/20 13:46:13;;;;;;;19.40;18.17;;;;;;;;;;5057254;28;21261;-66
2023/06/20 13:48:42;;;;;;;19.57;18.47;;;;;;;;;;5064980;28;21184;-66
2023/06/20 13:51:10;;;;;;;19.60;18.20;;;;;;;;;;5061626;28;20714;-66
2023/06/20 13:53:38;;;;;;;19.83;18.13;;;;;;;;;;5043247;28;20757;-67
2023/06/20 13:56:08;;;;;;;18.17;17.17;;;;;;;;;;5060400;28;20718;-66
2023/06/20 13:58:36;;;;;;;18.53;17.33;;;;;;;;;;5062272;28;20703;-66
2023/06/20 14:01:06;;;;;;;18.10;17.20;;;;;;;;;;5061753;28;20702;-66
2023/06/20 14:03:34;;;;;;;19.10;17.80;;;;;;;;;;5045156;28;20690;-66
2023/06/20 14:06:02;;;;;;;18.10;17.20;;;;;;;;;;5045417;28;20682;-66
2023/06/20 14:08:31;;;;;;;19.40;18.30;;;;;;;;;;5062493;28;21065;-65
2023/06/20 14:10:59;;;;;;;19.53;18.13;;;;;;;;;;5057527;28;20757;-65
2023/06/20 14:13:29;;;;;;;19.10;17.60;;;;;;;;;;5034355;28;20802;-66
2023/06/20 14:15:57;;;;;;;19.10;17.70;;;;;;;;;;5042284;28;21040;-66
2023/06/20 14:18:25;;;;;;;18.87;17.03;;;;;;;;;;5033836;28;21111;-67
2023/06/20 14:20:54;;;;;;;18.00;16.80;;;;;;;;;;5041956;28;20588;-66
2023/06/20 14:23:22;;;;;;;18.40;17.33;;;;;;;;;;5055156;28;20688;-66
2023/06/20 14:25:50;;;;;;;19.87;17.83;;;;;;;;;;5058329;28;20691;-65
2023/06/20 14:28:24;;;;;;;18.07;16.97;;;;;;;;;;5061363;28;20694;-65